Авиационная погода в Николаеве

Регион: 
Погода METAR: 
UKON 221500Z 31001MPS CAVOK M01/M06 Q1013 NOSIG
Время наблюдения
2022-01-22T15:00:00Z
Температура C
-1.0
Точка росы
-6.0
Направление ветра
310
Скорость ветра (узлы)
2
Метео видимость
6.21
Облачность
CAVOK
Нижняя граница облачности (футы)
Явления погоды
Условия полета
VFR